Wapakoneta, Ohio
Current Conditions -  °F | °C
As of 7:13 PM on Thursday 27 Nov 2014 (Local Time) from KAXV Reporting Station
Overcast Overcast  
Wind Chill: 21°   Ceiling: 1600
Heat Index: 30°   Visibility: 10mi
Dew Point: 27°   Wind: 12mph
Humidity: 86%   Direction: 270°W
Pressure: 30.31"   Gusts: 16mph
Location:  40.57°N, 84.19°W
Report Text: KAXV 280013Z AUTO 27010G14KT 10SM OVC016 M01/M03 A3031 RMK AO2
Loading
Personal Weather Stations






























Interactive Weather Map New forecast layout! Learn more

10-Day Weather Forecast

Advertisements
Track Severe Weather on mobile